This is the latest recevied weather packets stored in our database for station/object KE5VBO-1. If no packets are shown the sender has not sent any weather packets the latest 1 day(s).
| Time | Temp. | Humidity | Pressure | Rain* | Wind** | Luminosity | Snow |
|---|---|---|---|---|---|---|---|
| 1778051742 | 13.89° C | 1% | 1008.1 hPa | 0 mm | - | - | - |
| 1778049938 | 13.89° C | 1% | 1008.2 hPa | 0 mm | - | - | - |
| 1778049080 | 13.89° C | 1% | 1008.4 hPa | 0 mm | - | - | - |
| 1778048143 | 13.89° C | 1% | 1008.3 hPa | 0 mm | - | - | - |
| 1778045401 | 15° C | 1% | 1008.2 hPa | 0 mm | - | - | - |
| 1778044541 | 15° C | 1% | 1008.2 hPa | 0 mm | - | - | - |
| 1778043675 | 15° C | 1% | 1008.1 hPa | 0 mm | - | - | - |
| 1778041859 | 15.56° C | 1% | 1007.8 hPa | 0 mm | - | - | - |
| 1778040935 | 16.11° C | 1% | 1007.9 hPa | 0 mm | - | - | - |
| 1778040054 | 16.11° C | 1% | 1007.6 hPa | 0 mm | - | - | - |
| 1778039126 | 16.67° C | 1% | 1007.4 hPa | 0 mm | - | - | - |
| 1778037317 | 17.22° C | 1% | 1007.2 hPa | 0 mm | - | - | - |
| 1778036452 | 17.78° C | 1% | 1006.9 hPa | 0 mm | - | - | - |
| 1778035529 | 18.33° C | 1% | 1006.4 hPa | 0 mm | - | - | - |
| 1778033719 | 19.44° C | 1% | 1005.5 hPa | 0 mm | - | - | - |
| 1778031923 | 20° C | 1% | 1004.7 hPa | 0 mm | - | - | - |
| 1778030127 | 21.11° C | 1% | 1004.3 hPa | 0 mm | - | - | - |
| 1778029266 | 21.67° C | 1% | 1003.5 hPa | 0 mm | - | - | - |
| 1778027403 | 22.22° C | 1% | 1003.8 hPa | 0 mm | - | - | - |
| 1778022083 | 26.67° C | 42% | 1002.4 hPa | 0 mm | - | - | - |
| 1778018423 | 28.89° C | 53% | 1001.5 hPa | 0 mm | - | - | - |
| 1778017552 | 30.56° C | 49% | 1001.6 hPa | 0 mm | - | - | - |
| 1778013966 | 30° C | 46% | 1002.2 hPa | 0 mm | - | - | - |
* Rain latest hour (hover to see other rain measurements)
** Current wind speed in m/s (hover to see current wind gust speed)